sensor_id;sensor_type;location;lat;lon;timestamp;P1;durP1;ratioP1;P2;durP2;ratioP2
751;SDS011;360;48.764;9.164;2023-05-21T00:01:00;7.20;;;4.50;;
751;SDS011;360;48.764;9.164;2023-05-21T00:03:29;8.23;;;4.80;;
751;SDS011;360;48.764;9.164;2023-05-21T00:05:56;6.27;;;4.70;;
751;SDS011;360;48.764;9.164;2023-05-21T00:08:25;8.23;;;5.50;;
751;SDS011;360;48.764;9.164;2023-05-21T00:10:52;5.60;;;4.37;;
751;SDS011;360;48.764;9.164;2023-05-21T00:13:19;6.97;;;4.63;;
751;SDS011;360;48.764;9.164;2023-05-21T00:15:47;6.30;;;4.07;;
751;SDS011;360;48.764;9.164;2023-05-21T00:18:14;6.50;;;4.80;;
751;SDS011;360;48.764;9.164;2023-05-21T00:20:41;6.67;;;4.67;;
751;SDS011;360;48.764;9.164;2023-05-21T00:23:08;6.50;;;4.60;;
751;SDS011;360;48.764;9.164;2023-05-21T00:25:34;7.83;;;4.30;;
751;SDS011;360;48.764;9.164;2023-05-21T00:28:01;7.10;;;4.83;;
751;SDS011;360;48.764;9.164;2023-05-21T00:30:28;6.97;;;5.00;;
751;SDS011;360;48.764;9.164;2023-05-21T00:32:56;5.80;;;4.00;;
751;SDS011;360;48.764;9.164;2023-05-21T00:35:26;5.80;;;4.23;;
751;SDS011;360;48.764;9.164;2023-05-21T00:37:53;7.20;;;4.87;;
751;SDS011;360;48.764;9.164;2023-05-21T00:40:19;6.63;;;4.70;;
751;SDS011;360;48.764;9.164;2023-05-21T00:42:46;7.53;;;5.50;;
751;SDS011;360;48.764;9.164;2023-05-21T00:45:13;8.40;;;5.57;;
751;SDS011;360;48.764;9.164;2023-05-21T00:47:40;7.30;;;4.73;;
751;SDS011;360;48.764;9.164;2023-05-21T00:50:09;6.60;;;5.00;;
751;SDS011;360;48.764;9.164;2023-05-21T00:52:39;8.90;;;5.83;;
751;SDS011;360;48.764;9.164;2023-05-21T00:55:08;6.83;;;4.80;;
751;SDS011;360;48.764;9.164;2023-05-21T00:57:35;8.17;;;4.90;;
751;SDS011;360;48.764;9.164;2023-05-21T01:00:04;8.20;;;5.00;;
751;SDS011;360;48.764;9.164;2023-05-21T01:02:33;8.50;;;5.73;;
751;SDS011;360;48.764;9.164;2023-05-21T01:05:01;9.50;;;4.90;;
751;SDS011;360;48.764;9.164;2023-05-21T01:07:31;5.93;;;4.83;;
751;SDS011;360;48.764;9.164;2023-05-21T01:10:00;6.90;;;5.00;;
751;SDS011;360;48.764;9.164;2023-05-21T01:12:28;6.17;;;4.90;;
751;SDS011;360;48.764;9.164;2023-05-21T01:14:56;7.60;;;5.00;;
751;SDS011;360;48.764;9.164;2023-05-21T01:17:24;9.07;;;5.13;;
751;SDS011;360;48.764;9.164;2023-05-21T01:19:52;9.03;;;5.57;;
751;SDS011;360;48.764;9.164;2023-05-21T01:22:20;7.20;;;5.13;;
751;SDS011;360;48.764;9.164;2023-05-21T01:24:50;8.63;;;5.90;;
751;SDS011;360;48.764;9.164;2023-05-21T01:27:19;7.23;;;4.83;;
751;SDS011;360;48.764;9.164;2023-05-21T01:29:46;7.30;;;5.00;;
751;SDS011;360;48.764;9.164;2023-05-21T01:32:15;7.77;;;5.03;;
751;SDS011;360;48.764;9.164;2023-05-21T01:34:49;8.30;;;6.37;;
751;SDS011;360;48.764;9.164;2023-05-21T01:37:22;7.30;;;4.40;;
751;SDS011;360;48.764;9.164;2023-05-21T01:40:02;10.10;;;5.03;;
751;SDS011;360;48.764;9.164;2023-05-21T01:42:34;6.87;;;4.80;;
751;SDS011;360;48.764;9.164;2023-05-21T01:45:04;6.30;;;5.40;;
751;SDS011;360;48.764;9.164;2023-05-21T01:47:33;7.97;;;5.70;;
751;SDS011;360;48.764;9.164;2023-05-21T01:50:03;9.30;;;5.83;;
751;SDS011;360;48.764;9.164;2023-05-21T01:52:30;7.43;;;5.50;;
751;SDS011;360;48.764;9.164;2023-05-21T01:54:58;7.40;;;4.63;;
751;SDS011;360;48.764;9.164;2023-05-21T01:57:25;8.13;;;5.93;;
751;SDS011;360;48.764;9.164;2023-05-21T01:59:52;8.00;;;5.27;;
751;SDS011;360;48.764;9.164;2023-05-21T02:02:20;7.43;;;4.80;;
751;SDS011;360;48.764;9.164;2023-05-21T02:04:47;8.27;;;5.67;;
751;SDS011;360;48.764;9.164;2023-05-21T02:07:14;7.37;;;5.07;;
751;SDS011;360;48.764;9.164;2023-05-21T02:09:42;6.50;;;4.60;;
751;SDS011;360;48.764;9.164;2023-05-21T02:12:10;6.17;;;4.97;;
751;SDS011;360;48.764;9.164;2023-05-21T02:14:37;7.50;;;5.83;;
751;SDS011;360;48.764;9.164;2023-05-21T02:17:04;7.10;;;4.60;;
751;SDS011;360;48.764;9.164;2023-05-21T02:19:32;8.57;;;5.10;;
751;SDS011;360;48.764;9.164;2023-05-21T02:21:58;5.90;;;4.70;;
751;SDS011;360;48.764;9.164;2023-05-21T02:24:25;8.10;;;4.70;;
751;SDS011;360;48.764;9.164;2023-05-21T02:26:53;6.40;;;4.87;;
751;SDS011;360;48.764;9.164;2023-05-21T02:29:21;7.70;;;5.83;;
751;SDS011;360;48.764;9.164;2023-05-21T02:31:48;7.47;;;4.20;;
751;SDS011;360;48.764;9.164;2023-05-21T02:34:15;8.03;;;5.43;;
751;SDS011;360;48.764;9.164;2023-05-21T02:36:44;9.10;;;5.73;;
751;SDS011;360;48.764;9.164;2023-05-21T02:39:12;5.90;;;4.97;;
751;SDS011;360;48.764;9.164;2023-05-21T02:41:39;8.30;;;5.87;;
751;SDS011;360;48.764;9.164;2023-05-21T02:44:06;6.60;;;5.90;;
751;SDS011;360;48.764;9.164;2023-05-21T02:46:34;9.47;;;6.30;;
751;SDS011;360;48.764;9.164;2023-05-21T02:49:01;8.43;;;5.70;;
751;SDS011;360;48.764;9.164;2023-05-21T02:51:28;7.30;;;5.67;;
751;SDS011;360;48.764;9.164;2023-05-21T02:53:54;11.13;;;7.30;;
751;SDS011;360;48.764;9.164;2023-05-21T02:56:21;9.80;;;6.60;;
751;SDS011;360;48.764;9.164;2023-05-21T02:58:49;12.00;;;6.43;;
751;SDS011;360;48.764;9.164;2023-05-21T03:01:17;11.90;;;6.60;;
751;SDS011;360;48.764;9.164;2023-05-21T03:03:45;9.47;;;5.90;;
751;SDS011;360;48.764;9.164;2023-05-21T03:06:12;8.47;;;6.03;;
751;SDS011;360;48.764;9.164;2023-05-21T03:08:40;8.63;;;6.53;;
751;SDS011;360;48.764;9.164;2023-05-21T03:11:07;8.67;;;6.60;;
751;SDS011;360;48.764;9.164;2023-05-21T03:13:33;11.37;;;6.57;;
751;SDS011;360;48.764;9.164;2023-05-21T03:16:00;7.47;;;5.47;;
751;SDS011;360;48.764;9.164;2023-05-21T03:18:27;10.40;;;6.43;;
751;SDS011;360;48.764;9.164;2023-05-21T03:20:55;8.67;;;5.93;;
751;SDS011;360;48.764;9.164;2023-05-21T03:23:23;8.30;;;4.73;;
751;SDS011;360;48.764;9.164;2023-05-21T03:25:49;9.07;;;6.30;;
751;SDS011;360;48.764;9.164;2023-05-21T03:28:16;8.73;;;5.43;;
751;SDS011;360;48.764;9.164;2023-05-21T03:30:43;12.60;;;6.63;;
751;SDS011;360;48.764;9.164;2023-05-21T03:33:11;9.40;;;5.60;;
751;SDS011;360;48.764;9.164;2023-05-21T03:35:38;9.60;;;5.90;;
751;SDS011;360;48.764;9.164;2023-05-21T03:38:06;9.10;;;5.53;;
751;SDS011;360;48.764;9.164;2023-05-21T03:40:33;8.97;;;6.57;;
751;SDS011;360;48.764;9.164;2023-05-21T03:43:00;10.33;;;5.30;;
751;SDS011;360;48.764;9.164;2023-05-21T03:45:27;10.20;;;5.90;;
751;SDS011;360;48.764;9.164;2023-05-21T03:47:54;9.10;;;6.20;;
751;SDS011;360;48.764;9.164;2023-05-21T03:50:20;10.10;;;5.77;;
751;SDS011;360;48.764;9.164;2023-05-21T03:52:47;8.37;;;6.00;;
751;SDS011;360;48.764;9.164;2023-05-21T03:55:15;10.30;;;5.73;;
751;SDS011;360;48.764;9.164;2023-05-21T03:57:42;7.17;;;5.30;;
751;SDS011;360;48.764;9.164;2023-05-21T04:00:09;8.93;;;6.60;;
751;SDS011;360;48.764;9.164;2023-05-21T04:02:37;9.07;;;5.80;;
751;SDS011;360;48.764;9.164;2023-05-21T04:05:05;8.80;;;6.07;;
751;SDS011;360;48.764;9.164;2023-05-21T04:07:32;11.00;;;5.67;;
751;SDS011;360;48.764;9.164;2023-05-21T04:10:02;9.40;;;5.70;;
751;SDS011;360;48.764;9.164;2023-05-21T04:12:31;9.23;;;5.43;;
751;SDS011;360;48.764;9.164;2023-05-21T04:14:57;9.00;;;5.60;;
751;SDS011;360;48.764;9.164;2023-05-21T04:17:26;7.27;;;5.47;;
751;SDS011;360;48.764;9.164;2023-05-21T04:19:53;11.87;;;6.10;;
751;SDS011;360;48.764;9.164;2023-05-21T04:22:20;7.00;;;4.70;;
751;SDS011;360;48.764;9.164;2023-05-21T04:24:47;7.47;;;5.60;;
751;SDS011;360;48.764;9.164;2023-05-21T04:27:14;9.10;;;5.97;;
751;SDS011;360;48.764;9.164;2023-05-21T04:29:42;9.80;;;5.90;;
751;SDS011;360;48.764;9.164;2023-05-21T04:32:09;9.30;;;6.87;;
751;SDS011;360;48.764;9.164;2023-05-21T04:34:39;8.17;;;5.40;;
751;SDS011;360;48.764;9.164;2023-05-21T04:37:06;9.13;;;7.00;;
751;SDS011;360;48.764;9.164;2023-05-21T04:39:34;7.70;;;5.83;;
751;SDS011;360;48.764;9.164;2023-05-21T04:42:01;9.77;;;6.57;;
751;SDS011;360;48.764;9.164;2023-05-21T04:44:28;10.63;;;7.07;;
751;SDS011;360;48.764;9.164;2023-05-21T04:46:56;11.17;;;6.70;;
751;SDS011;360;48.764;9.164;2023-05-21T04:49:22;10.77;;;6.10;;
751;SDS011;360;48.764;9.164;2023-05-21T04:51:49;11.27;;;6.60;;
751;SDS011;360;48.764;9.164;2023-05-21T04:54:16;8.67;;;5.90;;
751;SDS011;360;48.764;9.164;2023-05-21T04:56:43;8.63;;;5.73;;
751;SDS011;360;48.764;9.164;2023-05-21T04:59:11;8.77;;;6.10;;
751;SDS011;360;48.764;9.164;2023-05-21T05:01:38;8.47;;;5.90;;
751;SDS011;360;48.764;9.164;2023-05-21T05:04:06;9.20;;;7.10;;
751;SDS011;360;48.764;9.164;2023-05-21T05:06:33;9.40;;;6.20;;
751;SDS011;360;48.764;9.164;2023-05-21T05:09:00;8.77;;;6.37;;
751;SDS011;360;48.764;9.164;2023-05-21T05:11:28;10.30;;;7.10;;
751;SDS011;360;48.764;9.164;2023-05-21T05:13:55;9.33;;;6.30;;
751;SDS011;360;48.764;9.164;2023-05-21T05:16:23;11.60;;;5.93;;
751;SDS011;360;48.764;9.164;2023-05-21T05:18:50;8.70;;;6.00;;
751;SDS011;360;48.764;9.164;2023-05-21T05:21:20;10.63;;;7.23;;
751;SDS011;360;48.764;9.164;2023-05-21T05:23:47;12.57;;;6.10;;
751;SDS011;360;48.764;9.164;2023-05-21T05:26:14;8.53;;;5.63;;
751;SDS011;360;48.764;9.164;2023-05-21T05:28:41;8.10;;;6.37;;
751;SDS011;360;48.764;9.164;2023-05-21T05:31:08;7.93;;;6.03;;
751;SDS011;360;48.764;9.164;2023-05-21T05:33:35;8.63;;;5.47;;
751;SDS011;360;48.764;9.164;2023-05-21T05:36:02;10.17;;;6.40;;
751;SDS011;360;48.764;9.164;2023-05-21T05:38:30;9.10;;;6.80;;
751;SDS011;360;48.764;9.164;2023-05-21T05:40:57;9.60;;;5.70;;
751;SDS011;360;48.764;9.164;2023-05-21T05:43:23;9.83;;;6.10;;
751;SDS011;360;48.764;9.164;2023-05-21T05:45:50;7.80;;;5.13;;
751;SDS011;360;48.764;9.164;2023-05-21T05:48:17;11.97;;;6.60;;
751;SDS011;360;48.764;9.164;2023-05-21T05:50:44;9.83;;;6.67;;
751;SDS011;360;48.764;9.164;2023-05-21T05:53:11;10.73;;;6.70;;
751;SDS011;360;48.764;9.164;2023-05-21T05:55:39;8.63;;;6.30;;
751;SDS011;360;48.764;9.164;2023-05-21T05:58:06;11.03;;;6.40;;
751;SDS011;360;48.764;9.164;2023-05-21T06:00:33;8.83;;;5.47;;
751;SDS011;360;48.764;9.164;2023-05-21T06:03:00;8.13;;;5.70;;
751;SDS011;360;48.764;9.164;2023-05-21T06:05:27;9.40;;;6.13;;
751;SDS011;360;48.764;9.164;2023-05-21T06:07:54;9.00;;;5.50;;
751;SDS011;360;48.764;9.164;2023-05-21T06:10:20;10.37;;;6.07;;
751;SDS011;360;48.764;9.164;2023-05-21T06:12:49;9.20;;;6.17;;
751;SDS011;360;48.764;9.164;2023-05-21T06:15:15;9.57;;;7.53;;
751;SDS011;360;48.764;9.164;2023-05-21T06:17:43;9.67;;;6.60;;
751;SDS011;360;48.764;9.164;2023-05-21T06:20:10;8.60;;;5.90;;
751;SDS011;360;48.764;9.164;2023-05-21T06:22:37;7.97;;;5.93;;
751;SDS011;360;48.764;9.164;2023-05-21T06:25:05;9.00;;;6.13;;
751;SDS011;360;48.764;9.164;2023-05-21T06:27:34;9.07;;;6.77;;
751;SDS011;360;48.764;9.164;2023-05-21T06:30:02;10.17;;;6.53;;
751;SDS011;360;48.764;9.164;2023-05-21T06:32:30;9.67;;;5.70;;
751;SDS011;360;48.764;9.164;2023-05-21T06:34:57;9.03;;;5.87;;
751;SDS011;360;48.764;9.164;2023-05-21T06:37:23;9.50;;;7.20;;
751;SDS011;360;48.764;9.164;2023-05-21T06:39:50;8.97;;;7.03;;
751;SDS011;360;48.764;9.164;2023-05-21T06:42:17;8.73;;;6.77;;
751;SDS011;360;48.764;9.164;2023-05-21T06:44:44;10.27;;;5.83;;
751;SDS011;360;48.764;9.164;2023-05-21T06:47:12;9.17;;;7.03;;
751;SDS011;360;48.764;9.164;2023-05-21T06:49:39;10.63;;;6.90;;
751;SDS011;360;48.764;9.164;2023-05-21T06:52:06;7.73;;;5.60;;
751;SDS011;360;48.764;9.164;2023-05-21T06:54:32;8.53;;;6.27;;
751;SDS011;360;48.764;9.164;2023-05-21T06:56:59;8.60;;;5.50;;
751;SDS011;360;48.764;9.164;2023-05-21T06:59:26;7.93;;;6.63;;
751;SDS011;360;48.764;9.164;2023-05-21T07:01:53;9.83;;;6.33;;
751;SDS011;360;48.764;9.164;2023-05-21T07:04:21;7.70;;;5.70;;
751;SDS011;360;48.764;9.164;2023-05-21T07:06:48;10.40;;;6.93;;
751;SDS011;360;48.764;9.164;2023-05-21T07:09:16;10.47;;;6.20;;
751;SDS011;360;48.764;9.164;2023-05-21T07:11:43;35.47;;;6.97;;
751;SDS011;360;48.764;9.164;2023-05-21T07:14:10;8.70;;;5.67;;
751;SDS011;360;48.764;9.164;2023-05-21T07:16:36;8.00;;;6.17;;
751;SDS011;360;48.764;9.164;2023-05-21T07:19:04;8.07;;;6.13;;
751;SDS011;360;48.764;9.164;2023-05-21T07:21:32;8.70;;;5.13;;
751;SDS011;360;48.764;9.164;2023-05-21T07:23:59;9.80;;;6.63;;
751;SDS011;360;48.764;9.164;2023-05-21T07:26:26;9.60;;;6.30;;
751;SDS011;360;48.764;9.164;2023-05-21T07:28:53;6.83;;;5.40;;
751;SDS011;360;48.764;9.164;2023-05-21T07:31:19;11.37;;;6.03;;
751;SDS011;360;48.764;9.164;2023-05-21T07:33:46;6.03;;;4.53;;
751;SDS011;360;48.764;9.164;2023-05-21T07:36:13;7.50;;;4.90;;
751;SDS011;360;48.764;9.164;2023-05-21T07:38:41;7.73;;;5.80;;
751;SDS011;360;48.764;9.164;2023-05-21T07:41:09;8.67;;;5.90;;
751;SDS011;360;48.764;9.164;2023-05-21T07:43:35;8.80;;;5.70;;
751;SDS011;360;48.764;9.164;2023-05-21T07:46:03;7.60;;;5.47;;
751;SDS011;360;48.764;9.164;2023-05-21T07:48:30;6.47;;;5.87;;
751;SDS011;360;48.764;9.164;2023-05-21T07:50:57;8.17;;;5.87;;
751;SDS011;360;48.764;9.164;2023-05-21T07:53:24;8.10;;;5.60;;
751;SDS011;360;48.764;9.164;2023-05-21T07:55:52;7.20;;;4.93;;
751;SDS011;360;48.764;9.164;2023-05-21T07:58:19;7.60;;;5.30;;
751;SDS011;360;48.764;9.164;2023-05-21T08:00:47;7.40;;;5.70;;
751;SDS011;360;48.764;9.164;2023-05-21T08:03:15;8.57;;;5.77;;
751;SDS011;360;48.764;9.164;2023-05-21T08:05:42;7.00;;;5.90;;
751;SDS011;360;48.764;9.164;2023-05-21T08:08:15;7.67;;;5.87;;
751;SDS011;360;48.764;9.164;2023-05-21T08:10:42;5.73;;;4.73;;
751;SDS011;360;48.764;9.164;2023-05-21T08:13:11;7.30;;;6.40;;
751;SDS011;360;48.764;9.164;2023-05-21T08:15:39;9.77;;;5.83;;
751;SDS011;360;48.764;9.164;2023-05-21T08:18:06;9.07;;;6.37;;
751;SDS011;360;48.764;9.164;2023-05-21T08:20:32;13.03;;;7.10;;
751;SDS011;360;48.764;9.164;2023-05-21T08:23:00;7.03;;;6.07;;
751;SDS011;360;48.764;9.164;2023-05-21T08:25:26;7.83;;;6.13;;
751;SDS011;360;48.764;9.164;2023-05-21T08:27:54;6.50;;;5.07;;
751;SDS011;360;48.764;9.164;2023-05-21T08:30:22;6.03;;;5.00;;
751;SDS011;360;48.764;9.164;2023-05-21T08:32:49;8.60;;;5.50;;
751;SDS011;360;48.764;9.164;2023-05-21T08:35:16;6.10;;;4.90;;
751;SDS011;360;48.764;9.164;2023-05-21T08:37:43;6.83;;;5.17;;
751;SDS011;360;48.764;9.164;2023-05-21T08:40:10;6.60;;;5.07;;
751;SDS011;360;48.764;9.164;2023-05-21T08:42:38;5.80;;;4.50;;
751;SDS011;360;48.764;9.164;2023-05-21T08:45:09;5.97;;;5.00;;
751;SDS011;360;48.764;9.164;2023-05-21T08:47:39;5.67;;;4.57;;
751;SDS011;360;48.764;9.164;2023-05-21T08:50:07;8.20;;;5.87;;
751;SDS011;360;48.764;9.164;2023-05-21T08:52:35;6.83;;;5.23;;
751;SDS011;360;48.764;9.164;2023-05-21T08:55:03;6.43;;;4.60;;
751;SDS011;360;48.764;9.164;2023-05-21T08:57:30;7.80;;;6.43;;
751;SDS011;360;48.764;9.164;2023-05-21T08:59:57;6.93;;;5.70;;
751;SDS011;360;48.764;9.164;2023-05-21T09:02:24;7.67;;;6.07;;
751;SDS011;360;48.764;9.164;2023-05-21T09:04:52;5.83;;;4.17;;
751;SDS011;360;48.764;9.164;2023-05-21T09:07:23;7.60;;;5.43;;
751;SDS011;360;48.764;9.164;2023-05-21T09:09:53;7.47;;;5.83;;
751;SDS011;360;48.764;9.164;2023-05-21T09:12:21;7.37;;;5.40;;
751;SDS011;360;48.764;9.164;2023-05-21T09:14:48;5.63;;;4.90;;
751;SDS011;360;48.764;9.164;2023-05-21T09:17:16;7.07;;;5.33;;
751;SDS011;360;48.764;9.164;2023-05-21T09:22:33;6.23;;;5.10;;
751;SDS011;360;48.764;9.164;2023-05-21T09:25:02;6.50;;;5.20;;
751;SDS011;360;48.764;9.164;2023-05-21T09:27:31;6.63;;;5.27;;
751;SDS011;360;48.764;9.164;2023-05-21T09:29:58;6.10;;;5.33;;
751;SDS011;360;48.764;9.164;2023-05-21T09:32:26;5.10;;;4.60;;
751;SDS011;360;48.764;9.164;2023-05-21T09:34:53;6.57;;;4.70;;
751;SDS011;360;48.764;9.164;2023-05-21T09:37:21;4.63;;;3.67;;
751;SDS011;360;48.764;9.164;2023-05-21T09:39:49;5.90;;;4.80;;
751;SDS011;360;48.764;9.164;2023-05-21T09:42:15;9.70;;;4.97;;
751;SDS011;360;48.764;9.164;2023-05-21T09:44:46;7.23;;;4.87;;
751;SDS011;360;48.764;9.164;2023-05-21T09:47:18;5.57;;;4.53;;
751;SDS011;360;48.764;9.164;2023-05-21T09:49:46;8.07;;;6.23;;
751;SDS011;360;48.764;9.164;2023-05-21T09:52:19;5.37;;;4.83;;
751;SDS011;360;48.764;9.164;2023-05-21T09:54:50;5.70;;;4.40;;
751;SDS011;360;48.764;9.164;2023-05-21T09:57:21;4.83;;;3.90;;
751;SDS011;360;48.764;9.164;2023-05-21T09:59:49;5.27;;;4.77;;
751;SDS011;360;48.764;9.164;2023-05-21T10:02:16;5.97;;;4.80;;
751;SDS011;360;48.764;9.164;2023-05-21T10:04:46;5.50;;;4.67;;
751;SDS011;360;48.764;9.164;2023-05-21T10:07:14;5.83;;;4.80;;
751;SDS011;360;48.764;9.164;2023-05-21T10:09:44;5.90;;;4.90;;
751;SDS011;360;48.764;9.164;2023-05-21T10:12:14;6.00;;;4.70;;
751;SDS011;360;48.764;9.164;2023-05-21T10:14:43;5.43;;;4.20;;
751;SDS011;360;48.764;9.164;2023-05-21T10:17:16;5.50;;;4.60;;
751;SDS011;360;48.764;9.164;2023-05-21T10:19:44;5.50;;;4.40;;
751;SDS011;360;48.764;9.164;2023-05-21T10:22:12;6.43;;;4.70;;
751;SDS011;360;48.764;9.164;2023-05-21T10:24:40;5.83;;;4.90;;
751;SDS011;360;48.764;9.164;2023-05-21T10:27:11;5.63;;;4.77;;
751;SDS011;360;48.764;9.164;2023-05-21T10:29:39;4.30;;;3.90;;
751;SDS011;360;48.764;9.164;2023-05-21T10:32:08;7.37;;;5.17;;
751;SDS011;360;48.764;9.164;2023-05-21T10:34:38;5.00;;;4.30;;
751;SDS011;360;48.764;9.164;2023-05-21T10:37:06;5.13;;;4.40;;
751;SDS011;360;48.764;9.164;2023-05-21T10:39:34;6.17;;;4.63;;
751;SDS011;360;48.764;9.164;2023-05-21T10:42:05;5.20;;;4.40;;
751;SDS011;360;48.764;9.164;2023-05-21T10:44:51;6.40;;;4.30;;
751;SDS011;360;48.764;9.164;2023-05-21T10:50:36;5.60;;;4.33;;
751;SDS011;360;48.764;9.164;2023-05-21T10:53:27;5.93;;;4.60;;
751;SDS011;360;48.764;9.164;2023-05-21T10:56:04;6.17;;;4.77;;
751;SDS011;360;48.764;9.164;2023-05-21T10:58:49;4.77;;;3.80;;
751;SDS011;360;48.764;9.164;2023-05-21T11:01:41;4.83;;;3.90;;
751;SDS011;360;48.764;9.164;2023-05-21T11:04:09;5.97;;;4.30;;
751;SDS011;360;48.764;9.164;2023-05-21T11:06:39;6.83;;;4.83;;
751;SDS011;360;48.764;9.164;2023-05-21T11:09:11;4.73;;;4.17;;
751;SDS011;360;48.764;9.164;2023-05-21T11:11:40;5.40;;;4.10;;
751;SDS011;360;48.764;9.164;2023-05-21T11:14:29;5.00;;;4.30;;
751;SDS011;360;48.764;9.164;2023-05-21T11:16:59;6.47;;;4.30;;
751;SDS011;360;48.764;9.164;2023-05-21T11:19:34;4.80;;;4.30;;
751;SDS011;360;48.764;9.164;2023-05-21T11:22:04;5.50;;;4.97;;
751;SDS011;360;48.764;9.164;2023-05-21T11:24:39;6.37;;;5.47;;
751;SDS011;360;48.764;9.164;2023-05-21T11:27:06;5.60;;;4.77;;
751;SDS011;360;48.764;9.164;2023-05-21T11:29:39;5.93;;;4.37;;
751;SDS011;360;48.764;9.164;2023-05-21T11:32:11;8.10;;;5.20;;
751;SDS011;360;48.764;9.164;2023-05-21T11:34:40;4.90;;;3.93;;
751;SDS011;360;48.764;9.164;2023-05-21T11:37:22;6.43;;;4.90;;
751;SDS011;360;48.764;9.164;2023-05-21T11:39:53;5.77;;;4.57;;
751;SDS011;360;48.764;9.164;2023-05-21T11:42:27;4.50;;;3.90;;
751;SDS011;360;48.764;9.164;2023-05-21T11:44:57;5.27;;;3.50;;
751;SDS011;360;48.764;9.164;2023-05-21T11:47:25;5.10;;;4.30;;
751;SDS011;360;48.764;9.164;2023-05-21T11:49:53;5.17;;;4.40;;
751;SDS011;360;48.764;9.164;2023-05-21T11:52:21;4.60;;;3.90;;
751;SDS011;360;48.764;9.164;2023-05-21T11:54:49;4.37;;;3.97;;
751;SDS011;360;48.764;9.164;2023-05-21T11:57:19;6.83;;;5.00;;
751;SDS011;360;48.764;9.164;2023-05-21T11:59:47;5.00;;;3.77;;
751;SDS011;360;48.764;9.164;2023-05-21T12:02:17;4.87;;;3.97;;
751;SDS011;360;48.764;9.164;2023-05-21T12:04:45;6.37;;;4.00;;
751;SDS011;360;48.764;9.164;2023-05-21T12:07:13;6.30;;;4.50;;
751;SDS011;360;48.764;9.164;2023-05-21T12:09:43;4.63;;;4.13;;
751;SDS011;360;48.764;9.164;2023-05-21T12:12:12;5.70;;;4.60;;
751;SDS011;360;48.764;9.164;2023-05-21T12:14:41;5.60;;;4.43;;
751;SDS011;360;48.764;9.164;2023-05-21T12:17:10;4.73;;;3.60;;
751;SDS011;360;48.764;9.164;2023-05-21T12:19:39;4.30;;;3.90;;
751;SDS011;360;48.764;9.164;2023-05-21T12:22:06;4.77;;;3.77;;
751;SDS011;360;48.764;9.164;2023-05-21T12:24:34;5.70;;;5.00;;
751;SDS011;360;48.764;9.164;2023-05-21T12:27:02;5.93;;;3.70;;
751;SDS011;360;48.764;9.164;2023-05-21T12:29:34;5.00;;;3.80;;
751;SDS011;360;48.764;9.164;2023-05-21T12:32:02;5.43;;;3.70;;
751;SDS011;360;48.764;9.164;2023-05-21T12:34:41;4.50;;;3.63;;
751;SDS011;360;48.764;9.164;2023-05-21T12:37:14;4.03;;;3.63;;
751;SDS011;360;48.764;9.164;2023-05-21T12:39:49;4.10;;;3.50;;
751;SDS011;360;48.764;9.164;2023-05-21T12:42:22;4.50;;;2.77;;
751;SDS011;360;48.764;9.164;2023-05-21T12:44:50;4.10;;;3.70;;
751;SDS011;360;48.764;9.164;2023-05-21T12:47:21;4.80;;;3.60;;
751;SDS011;360;48.764;9.164;2023-05-21T12:49:52;4.20;;;3.80;;
751;SDS011;360;48.764;9.164;2023-05-21T12:52:33;4.33;;;3.80;;
751;SDS011;360;48.764;9.164;2023-05-21T12:55:00;4.00;;;3.23;;
751;SDS011;360;48.764;9.164;2023-05-21T12:57:29;5.20;;;4.30;;
751;SDS011;360;48.764;9.164;2023-05-21T13:00:03;5.27;;;4.27;;
751;SDS011;360;48.764;9.164;2023-05-21T13:02:32;3.83;;;3.20;;
751;SDS011;360;48.764;9.164;2023-05-21T13:05:02;4.60;;;3.93;;
751;SDS011;360;48.764;9.164;2023-05-21T13:07:30;4.13;;;3.50;;
751;SDS011;360;48.764;9.164;2023-05-21T13:09:59;4.10;;;3.10;;
751;SDS011;360;48.764;9.164;2023-05-21T13:12:28;3.50;;;3.20;;
751;SDS011;360;48.764;9.164;2023-05-21T13:14:55;3.97;;;3.00;;
751;SDS011;360;48.764;9.164;2023-05-21T13:17:25;4.03;;;3.20;;
751;SDS011;360;48.764;9.164;2023-05-21T13:20:07;4.80;;;3.60;;
751;SDS011;360;48.764;9.164;2023-05-21T13:22:39;5.30;;;3.50;;
751;SDS011;360;48.764;9.164;2023-05-21T13:25:10;7.13;;;5.10;;
751;SDS011;360;48.764;9.164;2023-05-21T13:27:41;5.70;;;4.73;;
751;SDS011;360;48.764;9.164;2023-05-21T13:30:12;4.40;;;3.77;;
751;SDS011;360;48.764;9.164;2023-05-21T13:32:40;4.60;;;3.70;;
751;SDS011;360;48.764;9.164;2023-05-21T13:35:14;3.93;;;3.30;;
751;SDS011;360;48.764;9.164;2023-05-21T13:37:45;5.20;;;3.53;;
751;SDS011;360;48.764;9.164;2023-05-21T13:40:15;4.60;;;3.50;;
751;SDS011;360;48.764;9.164;2023-05-21T13:42:42;5.27;;;3.93;;
751;SDS011;360;48.764;9.164;2023-05-21T13:45:11;3.50;;;2.83;;
751;SDS011;360;48.764;9.164;2023-05-21T13:47:40;4.67;;;3.03;;
751;SDS011;360;48.764;9.164;2023-05-21T13:50:08;3.40;;;2.93;;
751;SDS011;360;48.764;9.164;2023-05-21T13:52:38;4.00;;;2.87;;
751;SDS011;360;48.764;9.164;2023-05-21T13:55:05;3.50;;;3.10;;
751;SDS011;360;48.764;9.164;2023-05-21T13:57:34;3.67;;;2.80;;
751;SDS011;360;48.764;9.164;2023-05-21T14:00:03;3.97;;;3.00;;
751;SDS011;360;48.764;9.164;2023-05-21T14:02:33;4.17;;;3.03;;
751;SDS011;360;48.764;9.164;2023-05-21T14:05:05;4.07;;;3.10;;
751;SDS011;360;48.764;9.164;2023-05-21T14:07:35;4.60;;;3.70;;
751;SDS011;360;48.764;9.164;2023-05-21T14:10:05;4.07;;;2.87;;
751;SDS011;360;48.764;9.164;2023-05-21T14:12:32;4.93;;;3.00;;
751;SDS011;360;48.764;9.164;2023-05-21T14:15:02;3.43;;;2.97;;
751;SDS011;360;48.764;9.164;2023-05-21T14:17:29;4.50;;;3.00;;
751;SDS011;360;48.764;9.164;2023-05-21T14:19:56;4.10;;;2.90;;
751;SDS011;360;48.764;9.164;2023-05-21T14:22:23;3.73;;;3.07;;
751;SDS011;360;48.764;9.164;2023-05-21T14:24:51;3.17;;;2.87;;
751;SDS011;360;48.764;9.164;2023-05-21T14:27:21;4.50;;;3.28;;
751;SDS011;360;48.764;9.164;2023-05-21T14:29:48;4.43;;;3.13;;
751;SDS011;360;48.764;9.164;2023-05-21T14:32:16;3.75;;;3.22;;
751;SDS011;360;48.764;9.164;2023-05-21T14:34:43;2.78;;;2.45;;
751;SDS011;360;48.764;9.164;2023-05-21T14:37:13;4.93;;;3.05;;
751;SDS011;360;48.764;9.164;2023-05-21T14:39:40;3.83;;;3.13;;
751;SDS011;360;48.764;9.164;2023-05-21T14:42:08;4.90;;;2.90;;
751;SDS011;360;48.764;9.164;2023-05-21T14:44:35;4.15;;;3.65;;
751;SDS011;360;48.764;9.164;2023-05-21T14:47:02;2.97;;;2.67;;
751;SDS011;360;48.764;9.164;2023-05-21T14:49:29;4.50;;;3.63;;
751;SDS011;360;48.764;9.164;2023-05-21T14:51:55;5.00;;;3.45;;
751;SDS011;360;48.764;9.164;2023-05-21T14:54:22;4.43;;;2.97;;
751;SDS011;360;48.764;9.164;2023-05-21T14:56:51;3.80;;;3.03;;
751;SDS011;360;48.764;9.164;2023-05-21T14:59:19;3.92;;;3.30;;
751;SDS011;360;48.764;9.164;2023-05-21T15:01:46;3.63;;;3.30;;
751;SDS011;360;48.764;9.164;2023-05-21T15:04:13;2.92;;;2.72;;
751;SDS011;360;48.764;9.164;2023-05-21T15:06:40;3.87;;;3.03;;
751;SDS011;360;48.764;9.164;2023-05-21T15:09:07;4.10;;;3.70;;
751;SDS011;360;48.764;9.164;2023-05-21T15:11:34;3.10;;;2.50;;
751;SDS011;360;48.764;9.164;2023-05-21T15:14:00;4.17;;;3.20;;
751;SDS011;360;48.764;9.164;2023-05-21T15:16:29;3.03;;;2.70;;
751;SDS011;360;48.764;9.164;2023-05-21T15:18:55;3.40;;;2.97;;
751;SDS011;360;48.764;9.164;2023-05-21T15:21:22;2.90;;;2.60;;
751;SDS011;360;48.764;9.164;2023-05-21T15:23:49;3.00;;;2.57;;
751;SDS011;360;48.764;9.164;2023-05-21T15:26:16;3.83;;;3.07;;
751;SDS011;360;48.764;9.164;2023-05-21T15:28:42;2.90;;;2.40;;
751;SDS011;360;48.764;9.164;2023-05-21T15:31:09;2.83;;;2.47;;
751;SDS011;360;48.764;9.164;2023-05-21T15:33:37;2.47;;;2.03;;
751;SDS011;360;48.764;9.164;2023-05-21T15:36:04;3.60;;;2.33;;
751;SDS011;360;48.764;9.164;2023-05-21T15:38:32;3.17;;;2.40;;
751;SDS011;360;48.764;9.164;2023-05-21T15:40:58;2.03;;;1.63;;
751;SDS011;360;48.764;9.164;2023-05-21T15:43:25;2.55;;;2.08;;
751;SDS011;360;48.764;9.164;2023-05-21T15:45:52;4.15;;;2.10;;
751;SDS011;360;48.764;9.164;2023-05-21T15:48:19;2.75;;;2.55;;
751;SDS011;360;48.764;9.164;2023-05-21T15:50:48;2.97;;;2.40;;
751;SDS011;360;48.764;9.164;2023-05-21T15:53:15;2.45;;;1.88;;
751;SDS011;360;48.764;9.164;2023-05-21T15:55:41;2.85;;;2.40;;
751;SDS011;360;48.764;9.164;2023-05-21T15:58:08;2.38;;;1.70;;